Bonita Beach, Florida
Current Conditions -  °F | °C
As of 3:53 AM on Sunday 26 Oct 2014 (Local Time) from KRSW Reporting Station
Clear Clear  
Wind Chill: 63°   Ceiling: Unl
Heat Index: 63°   Visibility: 10mi
Dew Point: 58°   Wind: 6mph
Humidity: 84%   Direction: 10°N
Pressure: 29.95"   Gusts: NA
Location:  26.3649°N, 81.8304°W
Report Text: KRSW 260753Z AUTO 01005KT 10SM CLR 17/14 A2995 RMK AO2 SLP140 T01720144
Loading
Personal Weather Stations






























Interactive Weather Map
Tropical Storm Tracking
New forecast layout! Learn more

10-Day Weather Forecast

Advertisements
Track Severe Weather on mobile